sensor_id;sensor_type;location;lat;lon;timestamp;pressure;altitude;pressure_sealevel;temperature;humidity
53719;BME280;39616;48.872;9.390;2023-04-26T00:02:23;98390.25;;;5.35;100.00
53719;BME280;39616;48.872;9.390;2023-04-26T00:04:53;98388.09;;;5.37;100.00
53719;BME280;39616;48.872;9.390;2023-04-26T00:07:24;98389.97;;;5.31;100.00
53719;BME280;39616;48.872;9.390;2023-04-26T00:09:55;98389.38;;;5.24;100.00
53719;BME280;39616;48.872;9.390;2023-04-26T00:12:26;98392.59;;;5.26;100.00
53719;BME280;39616;48.872;9.390;2023-04-26T00:14:56;98388.53;;;5.19;100.00
53719;BME280;39616;48.872;9.390;2023-04-26T00:17:27;98383.66;;;5.11;100.00
53719;BME280;39616;48.872;9.390;2023-04-26T00:19:57;98385.75;;;5.03;100.00
53719;BME280;39616;48.872;9.390;2023-04-26T00:22:27;98385.97;;;4.97;100.00
53719;BME280;39616;48.872;9.390;2023-04-26T00:24:58;98386.25;;;4.95;100.00
53719;BME280;39616;48.872;9.390;2023-04-26T00:27:28;98386.16;;;4.85;100.00
53719;BME280;39616;48.872;9.390;2023-04-26T00:29:59;98389.91;;;4.84;100.00
53719;BME280;39616;48.872;9.390;2023-04-26T00:32:30;98390.44;;;4.81;100.00
53719;BME280;39616;48.872;9.390;2023-04-26T00:35:03;98389.31;;;4.77;100.00
53719;BME280;39616;48.872;9.390;2023-04-26T00:37:33;98389.59;;;4.75;100.00
53719;BME280;39616;48.872;9.390;2023-04-26T00:40:04;98387.94;;;4.74;100.00
53719;BME280;39616;48.872;9.390;2023-04-26T00:42:37;98381.19;;;4.67;100.00
53719;BME280;39616;48.872;9.390;2023-04-26T00:45:08;98394.06;;;4.65;100.00
53719;BME280;39616;48.872;9.390;2023-04-26T00:47:39;98390.00;;;4.62;100.00
53719;BME280;39616;48.872;9.390;2023-04-26T00:50:09;98400.47;;;4.58;100.00
53719;BME280;39616;48.872;9.390;2023-04-26T00:52:40;98398.78;;;4.52;100.00
53719;BME280;39616;48.872;9.390;2023-04-26T00:55:10;98395.78;;;4.49;100.00
53719;BME280;39616;48.872;9.390;2023-04-26T00:57:41;98405.72;;;4.48;100.00
53719;BME280;39616;48.872;9.390;2023-04-26T01:00:13;98406.78;;;4.42;100.00
53719;BME280;39616;48.872;9.390;2023-04-26T01:02:44;98403.00;;;4.43;100.00
53719;BME280;39616;48.872;9.390;2023-04-26T01:05:14;98403.50;;;4.40;100.00
53719;BME280;39616;48.872;9.390;2023-04-26T01:07:45;98404.28;;;4.35;100.00
53719;BME280;39616;48.872;9.390;2023-04-26T01:10:16;98410.13;;;4.27;100.00
53719;BME280;39616;48.872;9.390;2023-04-26T01:12:47;98413.31;;;4.24;100.00
53719;BME280;39616;48.872;9.390;2023-04-26T01:15:17;98416.19;;;4.18;100.00
53719;BME280;39616;48.872;9.390;2023-04-26T01:17:48;98418.25;;;4.10;100.00
53719;BME280;39616;48.872;9.390;2023-04-26T01:20:18;98411.69;;;4.01;100.00
53719;BME280;39616;48.872;9.390;2023-04-26T01:22:49;98414.28;;;3.91;100.00
53719;BME280;39616;48.872;9.390;2023-04-26T01:25:21;98406.69;;;3.83;100.00
53719;BME280;39616;48.872;9.390;2023-04-26T01:27:51;98413.34;;;3.80;100.00
53719;BME280;39616;48.872;9.390;2023-04-26T01:30:21;98412.16;;;3.71;100.00
53719;BME280;39616;48.872;9.390;2023-04-26T01:32:52;98409.16;;;3.68;100.00
53719;BME280;39616;48.872;9.390;2023-04-26T01:35:22;98411.78;;;3.62;100.00
53719;BME280;39616;48.872;9.390;2023-04-26T01:37:52;98411.97;;;3.56;100.00
53719;BME280;39616;48.872;9.390;2023-04-26T01:40:23;98409.06;;;3.57;100.00
53719;BME280;39616;48.872;9.390;2023-04-26T01:42:55;98404.66;;;3.51;100.00
53719;BME280;39616;48.872;9.390;2023-04-26T01:45:26;98412.88;;;3.45;100.00
53719;BME280;39616;48.872;9.390;2023-04-26T01:47:56;98410.78;;;3.47;100.00
53719;BME280;39616;48.872;9.390;2023-04-26T01:50:27;98405.91;;;3.44;100.00
53719;BME280;39616;48.872;9.390;2023-04-26T01:52:57;98407.03;;;3.48;100.00
53719;BME280;39616;48.872;9.390;2023-04-26T01:55:27;98402.31;;;3.55;100.00
53719;BME280;39616;48.872;9.390;2023-04-26T01:57:58;98405.31;;;3.58;100.00
53719;BME280;39616;48.872;9.390;2023-04-26T02:00:28;98404.97;;;3.55;100.00
53719;BME280;39616;48.872;9.390;2023-04-26T02:02:59;98398.25;;;3.52;100.00
53719;BME280;39616;48.872;9.390;2023-04-26T02:05:30;98406.28;;;3.52;100.00
53719;BME280;39616;48.872;9.390;2023-04-26T02:08:00;98395.19;;;3.44;100.00
53719;BME280;39616;48.872;9.390;2023-04-26T02:10:30;98411.28;;;3.44;100.00
53719;BME280;39616;48.872;9.390;2023-04-26T02:13:00;98404.03;;;3.44;100.00
53719;BME280;39616;48.872;9.390;2023-04-26T02:15:31;98411.00;;;3.45;100.00
53719;BME280;39616;48.872;9.390;2023-04-26T02:18:01;98411.31;;;3.49;100.00
53719;BME280;39616;48.872;9.390;2023-04-26T02:20:32;98398.00;;;3.54;100.00
53719;BME280;39616;48.872;9.390;2023-04-26T02:23:02;98398.72;;;3.49;100.00
53719;BME280;39616;48.872;9.390;2023-04-26T02:25:32;98398.56;;;3.56;100.00
53719;BME280;39616;48.872;9.390;2023-04-26T02:28:03;98402.53;;;3.53;100.00
53719;BME280;39616;48.872;9.390;2023-04-26T02:30:34;98409.28;;;3.56;100.00
53719;BME280;39616;48.872;9.390;2023-04-26T02:33:04;98410.78;;;3.47;100.00
53719;BME280;39616;48.872;9.390;2023-04-26T02:35:35;98412.13;;;3.49;100.00
53719;BME280;39616;48.872;9.390;2023-04-26T02:38:08;98408.59;;;3.44;100.00
53719;BME280;39616;48.872;9.390;2023-04-26T02:40:39;98396.63;;;3.51;100.00
53719;BME280;39616;48.872;9.390;2023-04-26T02:43:10;98391.81;;;3.53;100.00
53719;BME280;39616;48.872;9.390;2023-04-26T02:45:41;98400.75;;;3.59;100.00
53719;BME280;39616;48.872;9.390;2023-04-26T02:48:12;98403.91;;;3.56;100.00
53719;BME280;39616;48.872;9.390;2023-04-26T02:50:42;98398.06;;;3.59;100.00
53719;BME280;39616;48.872;9.390;2023-04-26T02:53:12;98401.56;;;3.59;100.00
53719;BME280;39616;48.872;9.390;2023-04-26T02:55:43;98395.44;;;3.64;100.00
53719;BME280;39616;48.872;9.390;2023-04-26T02:58:13;98405.63;;;3.62;100.00
53719;BME280;39616;48.872;9.390;2023-04-26T03:00:45;98412.16;;;3.71;100.00
53719;BME280;39616;48.872;9.390;2023-04-26T03:03:16;98407.84;;;3.70;100.00
53719;BME280;39616;48.872;9.390;2023-04-26T03:05:46;98406.25;;;3.69;100.00
53719;BME280;39616;48.872;9.390;2023-04-26T03:08:16;98410.22;;;3.67;100.00
53719;BME280;39616;48.872;9.390;2023-04-26T03:10:47;98402.44;;;3.65;100.00
53719;BME280;39616;48.872;9.390;2023-04-26T03:13:17;98417.78;;;3.70;100.00
53719;BME280;39616;48.872;9.390;2023-04-26T03:15:47;98402.75;;;3.69;100.00
53719;BME280;39616;48.872;9.390;2023-04-26T03:18:19;98408.59;;;3.66;100.00
53719;BME280;39616;48.872;9.390;2023-04-26T03:20:49;98415.53;;;3.61;100.00
53719;BME280;39616;48.872;9.390;2023-04-26T03:23:19;98405.53;;;3.57;100.00
53719;BME280;39616;48.872;9.390;2023-04-26T03:25:53;98410.03;;;3.51;100.00
53719;BME280;39616;48.872;9.390;2023-04-26T03:28:23;98413.38;;;3.42;100.00
53719;BME280;39616;48.872;9.390;2023-04-26T03:30:54;98412.50;;;3.36;100.00
53719;BME280;39616;48.872;9.390;2023-04-26T03:33:24;98411.38;;;3.32;100.00
53719;BME280;39616;48.872;9.390;2023-04-26T03:35:54;98419.91;;;3.29;100.00
53719;BME280;39616;48.872;9.390;2023-04-26T03:38:24;98412.94;;;3.28;100.00
53719;BME280;39616;48.872;9.390;2023-04-26T03:40:55;98419.03;;;3.23;100.00
53719;BME280;39616;48.872;9.390;2023-04-26T03:43:25;98418.16;;;3.18;100.00
53719;BME280;39616;48.872;9.390;2023-04-26T03:45:55;98421.88;;;3.17;100.00
53719;BME280;39616;48.872;9.390;2023-04-26T03:48:26;98421.56;;;3.13;100.00
53719;BME280;39616;48.872;9.390;2023-04-26T03:50:56;98419.28;;;3.05;100.00
53719;BME280;39616;48.872;9.390;2023-04-26T03:53:26;98422.22;;;3.03;100.00
53719;BME280;39616;48.872;9.390;2023-04-26T03:55:57;98412.81;;;3.01;100.00
53719;BME280;39616;48.872;9.390;2023-04-26T03:58:27;98414.84;;;2.94;100.00
53719;BME280;39616;48.872;9.390;2023-04-26T04:00:57;98415.81;;;2.87;100.00
53719;BME280;39616;48.872;9.390;2023-04-26T04:03:28;98426.53;;;2.87;100.00
53719;BME280;39616;48.872;9.390;2023-04-26T04:05:59;98421.81;;;2.78;100.00
53719;BME280;39616;48.872;9.390;2023-04-26T04:08:29;98428.13;;;2.72;100.00
53719;BME280;39616;48.872;9.390;2023-04-26T04:11:00;98422.38;;;2.63;100.00
53719;BME280;39616;48.872;9.390;2023-04-26T04:13:31;98422.63;;;2.61;100.00
53719;BME280;39616;48.872;9.390;2023-04-26T04:16:01;98416.97;;;2.58;100.00
53719;BME280;39616;48.872;9.390;2023-04-26T04:18:31;98420.78;;;2.62;100.00
53719;BME280;39616;48.872;9.390;2023-04-26T04:21:02;98413.69;;;2.56;100.00
53719;BME280;39616;48.872;9.390;2023-04-26T04:23:32;98421.41;;;2.52;100.00
53719;BME280;39616;48.872;9.390;2023-04-26T04:26:03;98417.09;;;2.51;100.00
53719;BME280;39616;48.872;9.390;2023-04-26T04:28:33;98415.13;;;2.47;100.00
53719;BME280;39616;48.872;9.390;2023-04-26T04:31:03;98415.63;;;2.44;100.00
53719;BME280;39616;48.872;9.390;2023-04-26T04:33:34;98412.63;;;2.40;100.00
53719;BME280;39616;48.872;9.390;2023-04-26T04:36:05;98413.44;;;2.40;100.00
53719;BME280;39616;48.872;9.390;2023-04-26T04:38:36;98417.97;;;2.40;100.00
53719;BME280;39616;48.872;9.390;2023-04-26T04:41:06;98421.38;;;2.35;100.00
53719;BME280;39616;48.872;9.390;2023-04-26T04:43:37;98425.69;;;2.36;100.00
53719;BME280;39616;48.872;9.390;2023-04-26T04:46:07;98430.69;;;2.33;100.00
53719;BME280;39616;48.872;9.390;2023-04-26T04:48:38;98424.16;;;2.40;100.00
53719;BME280;39616;48.872;9.390;2023-04-26T04:51:08;98423.91;;;2.42;100.00
53719;BME280;39616;48.872;9.390;2023-04-26T04:53:38;98428.84;;;2.50;100.00
53719;BME280;39616;48.872;9.390;2023-04-26T04:56:09;98436.19;;;2.55;100.00
53719;BME280;39616;48.872;9.390;2023-04-26T04:58:39;98431.81;;;2.65;100.00
53719;BME280;39616;48.872;9.390;2023-04-26T05:01:09;98432.28;;;2.79;100.00
53719;BME280;39616;48.872;9.390;2023-04-26T05:03:40;98434.56;;;2.87;100.00
53719;BME280;39616;48.872;9.390;2023-04-26T05:06:10;98445.63;;;2.91;100.00
53719;BME280;39616;48.872;9.390;2023-04-26T05:08:41;98441.72;;;2.99;100.00
53719;BME280;39616;48.872;9.390;2023-04-26T05:11:11;98448.28;;;3.08;100.00
53719;BME280;39616;48.872;9.390;2023-04-26T05:13:41;98451.34;;;3.17;100.00
53719;BME280;39616;48.872;9.390;2023-04-26T05:16:12;98453.84;;;3.23;100.00
53719;BME280;39616;48.872;9.390;2023-04-26T05:18:42;98464.41;;;3.30;100.00
53719;BME280;39616;48.872;9.390;2023-04-26T05:21:13;98457.50;;;3.34;100.00
53719;BME280;39616;48.872;9.390;2023-04-26T05:23:43;98462.13;;;3.38;100.00
53719;BME280;39616;48.872;9.390;2023-04-26T05:26:15;98464.09;;;3.43;100.00
53719;BME280;39616;48.872;9.390;2023-04-26T05:28:45;98466.56;;;3.50;100.00
53719;BME280;39616;48.872;9.390;2023-04-26T05:31:16;98473.94;;;3.59;100.00
53719;BME280;39616;48.872;9.390;2023-04-26T05:33:46;98469.22;;;3.67;100.00
53719;BME280;39616;48.872;9.390;2023-04-26T05:36:16;98470.13;;;3.72;100.00
53719;BME280;39616;48.872;9.390;2023-04-26T05:38:47;98474.56;;;3.83;100.00
53719;BME280;39616;48.872;9.390;2023-04-26T05:41:17;98482.47;;;3.95;100.00
53719;BME280;39616;48.872;9.390;2023-04-26T05:43:48;98478.84;;;4.06;100.00
53719;BME280;39616;48.872;9.390;2023-04-26T05:46:18;98476.59;;;4.20;100.00
53719;BME280;39616;48.872;9.390;2023-04-26T05:48:48;98479.38;;;4.30;100.00
53719;BME280;39616;48.872;9.390;2023-04-26T05:51:19;98472.00;;;4.43;100.00
53719;BME280;39616;48.872;9.390;2023-04-26T05:53:50;98479.34;;;4.52;100.00
53719;BME280;39616;48.872;9.390;2023-04-26T05:56:20;98479.13;;;4.54;100.00
53719;BME280;39616;48.872;9.390;2023-04-26T05:58:51;98485.91;;;4.62;100.00
53719;BME280;39616;48.872;9.390;2023-04-26T06:01:22;98489.03;;;4.80;100.00
53719;BME280;39616;48.872;9.390;2023-04-26T06:03:52;98472.41;;;4.83;100.00
53719;BME280;39616;48.872;9.390;2023-04-26T06:06:22;98475.63;;;4.85;100.00
53719;BME280;39616;48.872;9.390;2023-04-26T06:08:53;98486.69;;;4.89;100.00
53719;BME280;39616;48.872;9.390;2023-04-26T06:11:23;98484.91;;;5.00;100.00
53719;BME280;39616;48.872;9.390;2023-04-26T06:13:53;98489.59;;;5.15;100.00
53719;BME280;39616;48.872;9.390;2023-04-26T06:16:24;98479.44;;;5.22;100.00
53719;BME280;39616;48.872;9.390;2023-04-26T06:18:54;98483.28;;;5.31;100.00
53719;BME280;39616;48.872;9.390;2023-04-26T06:21:24;98476.41;;;5.50;100.00
53719;BME280;39616;48.872;9.390;2023-04-26T06:23:56;98481.06;;;5.65;100.00
53719;BME280;39616;48.872;9.390;2023-04-26T06:26:26;98489.28;;;5.48;100.00
53719;BME280;39616;48.872;9.390;2023-04-26T06:28:56;98487.75;;;5.57;99.60
53719;BME280;39616;48.872;9.390;2023-04-26T06:31:27;98487.53;;;5.69;98.98
53719;BME280;39616;48.872;9.390;2023-04-26T06:33:57;98492.81;;;5.96;100.00
53719;BME280;39616;48.872;9.390;2023-04-26T06:36:28;98489.88;;;6.03;97.59
53719;BME280;39616;48.872;9.390;2023-04-26T06:38:58;98499.47;;;5.89;95.81
53719;BME280;39616;48.872;9.390;2023-04-26T06:41:28;98500.22;;;5.74;95.32
53719;BME280;39616;48.872;9.390;2023-04-26T06:43:59;98507.03;;;5.87;94.17
53719;BME280;39616;48.872;9.390;2023-04-26T06:46:29;98503.09;;;6.04;94.75
53719;BME280;39616;48.872;9.390;2023-04-26T06:49:00;98496.13;;;6.09;90.78
53719;BME280;39616;48.872;9.390;2023-04-26T06:51:30;98498.44;;;6.52;93.86
53719;BME280;39616;48.872;9.390;2023-04-26T06:54:01;98499.25;;;6.58;85.54
53719;BME280;39616;48.872;9.390;2023-04-26T06:56:31;98497.66;;;6.67;84.58
53719;BME280;39616;48.872;9.390;2023-04-26T06:59:04;98495.81;;;7.09;83.19
53719;BME280;39616;48.872;9.390;2023-04-26T07:01:35;98492.84;;;7.15;79.33
53719;BME280;39616;48.872;9.390;2023-04-26T07:04:05;98491.78;;;7.37;79.05
53719;BME280;39616;48.872;9.390;2023-04-26T07:06:42;98488.78;;;7.43;81.85
53719;BME280;39616;48.872;9.390;2023-04-26T07:09:12;98484.13;;;7.85;81.52
53719;BME280;39616;48.872;9.390;2023-04-26T07:11:45;98492.00;;;7.66;77.16
53719;BME280;39616;48.872;9.390;2023-04-26T07:14:16;98482.00;;;7.66;75.93
53719;BME280;39616;48.872;9.390;2023-04-26T07:16:46;98490.38;;;7.60;71.24
53719;BME280;39616;48.872;9.390;2023-04-26T07:19:16;98475.53;;;7.67;71.42
53719;BME280;39616;48.872;9.390;2023-04-26T07:21:47;98475.31;;;8.23;71.84
53719;BME280;39616;48.872;9.390;2023-04-26T07:24:17;98472.47;;;8.59;69.54
53719;BME280;39616;48.872;9.390;2023-04-26T07:26:48;98470.16;;;8.82;68.34
53719;BME280;39616;48.872;9.390;2023-04-26T07:29:18;98470.28;;;9.06;69.23
53719;BME280;39616;48.872;9.390;2023-04-26T07:31:48;98460.72;;;9.42;67.41
53719;BME280;39616;48.872;9.390;2023-04-26T07:34:19;98462.72;;;9.61;65.97
53719;BME280;39616;48.872;9.390;2023-04-26T07:36:49;98454.09;;;10.07;63.97
53719;BME280;39616;48.872;9.390;2023-04-26T07:39:19;98458.69;;;9.82;64.42
53719;BME280;39616;48.872;9.390;2023-04-26T07:41:50;98467.47;;;9.98;60.56
53719;BME280;39616;48.872;9.390;2023-04-26T07:44:20;98459.09;;;10.43;60.94
53719;BME280;39616;48.872;9.390;2023-04-26T07:46:51;98456.22;;;10.10;60.89
53719;BME280;39616;48.872;9.390;2023-04-26T07:49:21;98459.78;;;10.29;59.49
53719;BME280;39616;48.872;9.390;2023-04-26T07:51:52;98463.97;;;10.78;58.91
53719;BME280;39616;48.872;9.390;2023-04-26T07:54:22;98455.66;;;11.07;56.70
53719;BME280;39616;48.872;9.390;2023-04-26T07:56:52;98453.28;;;10.87;54.65
53719;BME280;39616;48.872;9.390;2023-04-26T07:59:23;98464.47;;;10.00;58.62
53719;BME280;39616;48.872;9.390;2023-04-26T08:01:53;98449.72;;;10.54;59.46
53719;BME280;39616;48.872;9.390;2023-04-26T08:04:31;98465.19;;;10.53;57.04
53719;BME280;39616;48.872;9.390;2023-04-26T08:07:03;98470.56;;;11.10;58.89
53719;BME280;39616;48.872;9.390;2023-04-26T08:09:33;98465.72;;;11.86;56.53
53719;BME280;39616;48.872;9.390;2023-04-26T08:12:03;98460.00;;;12.15;55.31
53719;BME280;39616;48.872;9.390;2023-04-26T08:14:34;98463.47;;;12.29;53.49
53719;BME280;39616;48.872;9.390;2023-04-26T08:17:04;98462.53;;;12.48;53.83
53719;BME280;39616;48.872;9.390;2023-04-26T08:19:35;98454.03;;;12.27;52.13
53719;BME280;39616;48.872;9.390;2023-04-26T08:22:06;98469.31;;;11.68;54.05
53719;BME280;39616;48.872;9.390;2023-04-26T08:24:36;98472.34;;;12.21;53.39
53719;BME280;39616;48.872;9.390;2023-04-26T08:27:07;98469.44;;;12.81;51.00
53719;BME280;39616;48.872;9.390;2023-04-26T08:29:37;98469.31;;;13.09;49.21
53719;BME280;39616;48.872;9.390;2023-04-26T08:32:08;98467.56;;;12.68;48.64
53719;BME280;39616;48.872;9.390;2023-04-26T08:34:38;98470.94;;;12.38;49.45
53719;BME280;39616;48.872;9.390;2023-04-26T08:37:09;98468.56;;;12.58;52.14
53719;BME280;39616;48.872;9.390;2023-04-26T08:39:40;98469.69;;;11.61;52.56
53719;BME280;39616;48.872;9.390;2023-04-26T08:42:16;98478.66;;;10.77;54.55
53719;BME280;39616;48.872;9.390;2023-04-26T08:44:46;98484.06;;;9.91;55.70
53719;BME280;39616;48.872;9.390;2023-04-26T08:49:56;98494.28;;;9.12;56.36
53719;BME280;39616;48.872;9.390;2023-04-26T08:52:31;98493.22;;;9.08;56.58
53719;BME280;39616;48.872;9.390;2023-04-26T08:55:03;98491.38;;;9.04;57.82
53719;BME280;39616;48.872;9.390;2023-04-26T08:57:35;98487.78;;;10.20;56.54
53719;BME280;39616;48.872;9.390;2023-04-26T09:00:06;98483.28;;;10.58;58.37
53719;BME280;39616;48.872;9.390;2023-04-26T09:02:47;98486.94;;;10.00;55.96
53719;BME280;39616;48.872;9.390;2023-04-26T09:05:19;98481.22;;;10.87;54.04
53719;BME280;39616;48.872;9.390;2023-04-26T09:07:57;98474.69;;;12.14;52.07
53719;BME280;39616;48.872;9.390;2023-04-26T09:10:29;98476.94;;;11.66;51.89
53719;BME280;39616;48.872;9.390;2023-04-26T09:12:59;98468.34;;;12.05;48.38
53719;BME280;39616;48.872;9.390;2023-04-26T09:15:30;98465.44;;;12.65;49.08
53719;BME280;39616;48.872;9.390;2023-04-26T09:21:04;98467.63;;;12.99;49.92
53719;BME280;39616;48.872;9.390;2023-04-26T09:23:55;98465.19;;;13.34;46.53
53719;BME280;39616;48.872;9.390;2023-04-26T09:26:26;98469.41;;;13.40;45.36
53719;BME280;39616;48.872;9.390;2023-04-26T09:29:17;98464.19;;;12.49;47.87
53719;BME280;39616;48.872;9.390;2023-04-26T09:31:48;98466.63;;;12.23;48.30
53719;BME280;39616;48.872;9.390;2023-04-26T09:34:19;98463.09;;;11.95;49.78
53719;BME280;39616;48.872;9.390;2023-04-26T09:36:52;98461.91;;;12.65;50.67
53719;BME280;39616;48.872;9.390;2023-04-26T09:39:30;98461.13;;;12.50;48.48
53719;BME280;39616;48.872;9.390;2023-04-26T09:42:05;98461.00;;;12.05;49.06
53719;BME280;39616;48.872;9.390;2023-04-26T09:44:36;98461.81;;;10.61;53.62
53719;BME280;39616;48.872;9.390;2023-04-26T09:47:08;98458.78;;;10.44;56.05
53719;BME280;39616;48.872;9.390;2023-04-26T09:49:47;98449.97;;;10.33;54.93
53719;BME280;39616;48.872;9.390;2023-04-26T09:52:20;98448.09;;;10.72;53.67
53719;BME280;39616;48.872;9.390;2023-04-26T09:54:52;98453.22;;;10.54;54.99
53719;BME280;39616;48.872;9.390;2023-04-26T09:57:23;98442.28;;;10.78;52.46
53719;BME280;39616;48.872;9.390;2023-04-26T09:59:53;98446.44;;;11.08;53.23
53719;BME280;39616;48.872;9.390;2023-04-26T10:02:26;98442.03;;;11.26;52.24
53719;BME280;39616;48.872;9.390;2023-04-26T10:04:56;98449.53;;;10.64;51.96
53719;BME280;39616;48.872;9.390;2023-04-26T10:07:29;98456.50;;;10.70;56.19
53719;BME280;39616;48.872;9.390;2023-04-26T10:09:59;98442.66;;;11.23;53.52
53719;BME280;39616;48.872;9.390;2023-04-26T10:12:30;98448.84;;;11.43;52.72
53719;BME280;39616;48.872;9.390;2023-04-26T10:15:02;98448.47;;;11.77;50.55
53719;BME280;39616;48.872;9.390;2023-04-26T10:17:33;98448.75;;;11.61;51.24
53719;BME280;39616;48.872;9.390;2023-04-26T10:20:08;98444.81;;;11.40;53.62
53719;BME280;39616;48.872;9.390;2023-04-26T10:22:44;98448.44;;;11.63;50.93
53719;BME280;39616;48.872;9.390;2023-04-26T10:25:15;98437.84;;;11.94;51.34
53719;BME280;39616;48.872;9.390;2023-04-26T10:27:46;98437.53;;;12.23;54.95
53719;BME280;39616;48.872;9.390;2023-04-26T10:30:21;98444.38;;;12.21;49.74
53719;BME280;39616;48.872;9.390;2023-04-26T10:35:27;98437.41;;;12.78;48.41
53719;BME280;39616;48.872;9.390;2023-04-26T10:40:36;98434.44;;;12.52;48.26
53719;BME280;39616;48.872;9.390;2023-04-26T10:45:45;98434.41;;;12.66;47.27
53719;BME280;39616;48.872;9.390;2023-04-26T10:48:37;98432.88;;;13.19;50.96
53719;BME280;39616;48.872;9.390;2023-04-26T10:51:06;98435.28;;;12.39;45.44
53719;BME280;39616;48.872;9.390;2023-04-26T10:59:13;98429.56;;;12.27;47.78
53719;BME280;39616;48.872;9.390;2023-04-26T11:01:44;98420.22;;;11.92;45.25
53719;BME280;39616;48.872;9.390;2023-04-26T11:04:15;98424.03;;;12.18;46.41
53719;BME280;39616;48.872;9.390;2023-04-26T11:06:55;98416.13;;;12.44;47.17
53719;BME280;39616;48.872;9.390;2023-04-26T11:09:37;98407.84;;;13.31;46.93
53719;BME280;39616;48.872;9.390;2023-04-26T11:12:13;98407.47;;;13.23;45.75
53719;BME280;39616;48.872;9.390;2023-04-26T11:14:44;98417.53;;;13.00;45.50
53719;BME280;39616;48.872;9.390;2023-04-26T11:17:17;98413.31;;;12.36;48.58
53719;BME280;39616;48.872;9.390;2023-04-26T11:19:49;98403.09;;;11.77;47.68
53719;BME280;39616;48.872;9.390;2023-04-26T11:22:24;98400.59;;;11.95;48.42
53719;BME280;39616;48.872;9.390;2023-04-26T11:24:59;98398.28;;;12.16;49.69
53719;BME280;39616;48.872;9.390;2023-04-26T11:27:29;98400.09;;;11.93;48.97
53719;BME280;39616;48.872;9.390;2023-04-26T11:30:06;98394.56;;;11.56;49.39
53719;BME280;39616;48.872;9.390;2023-04-26T11:32:37;98389.22;;;11.93;48.24
53719;BME280;39616;48.872;9.390;2023-04-26T11:35:07;98381.09;;;12.88;49.73
53719;BME280;39616;48.872;9.390;2023-04-26T11:37:40;98379.06;;;12.48;48.66
53719;BME280;39616;48.872;9.390;2023-04-26T11:40:11;98371.47;;;12.81;47.31
53719;BME280;39616;48.872;9.390;2023-04-26T11:42:43;98378.97;;;12.40;45.30
53719;BME280;39616;48.872;9.390;2023-04-26T11:45:16;98374.25;;;12.31;46.70
53719;BME280;39616;48.872;9.390;2023-04-26T11:47:47;98365.59;;;12.29;46.19
53719;BME280;39616;48.872;9.390;2023-04-26T11:50:17;98352.72;;;12.80;47.27
53719;BME280;39616;48.872;9.390;2023-04-26T11:52:49;98350.69;;;13.17;46.38
53719;BME280;39616;48.872;9.390;2023-04-26T11:55:23;98349.91;;;13.47;48.47
53719;BME280;39616;48.872;9.390;2023-04-26T11:57:56;98349.25;;;13.99;45.73
53719;BME280;39616;48.872;9.390;2023-04-26T12:00:27;98351.88;;;14.21;45.12
53719;BME280;39616;48.872;9.390;2023-04-26T12:03:04;98344.47;;;14.05;45.27
53719;BME280;39616;48.872;9.390;2023-04-26T12:05:34;98346.09;;;14.49;45.46
53719;BME280;39616;48.872;9.390;2023-04-26T12:08:04;98341.97;;;13.68;43.28
53719;BME280;39616;48.872;9.390;2023-04-26T12:10:35;98342.47;;;13.31;44.98
53719;BME280;39616;48.872;9.390;2023-04-26T12:13:12;98336.94;;;13.44;44.39
53719;BME280;39616;48.872;9.390;2023-04-26T12:15:44;98343.91;;;13.05;46.19
53719;BME280;39616;48.872;9.390;2023-04-26T12:18:15;98352.03;;;12.97;46.79
53719;BME280;39616;48.872;9.390;2023-04-26T12:20:46;98341.16;;;13.28;49.20
53719;BME280;39616;48.872;9.390;2023-04-26T12:23:16;98336.28;;;12.85;47.12
53719;BME280;39616;48.872;9.390;2023-04-26T12:25:52;98338.84;;;11.87;47.04
53719;BME280;39616;48.872;9.390;2023-04-26T12:28:23;98341.75;;;11.35;47.95
53719;BME280;39616;48.872;9.390;2023-04-26T12:30:53;98346.88;;;11.50;48.11
53719;BME280;39616;48.872;9.390;2023-04-26T12:33:24;98340.31;;;11.65;47.14
53719;BME280;39616;48.872;9.390;2023-04-26T12:35:54;98347.56;;;11.97;45.94
53719;BME280;39616;48.872;9.390;2023-04-26T12:38:26;98345.34;;;11.72;47.35
53719;BME280;39616;48.872;9.390;2023-04-26T12:40:57;98331.88;;;11.94;46.79
53719;BME280;39616;48.872;9.390;2023-04-26T12:43:27;98331.13;;;12.84;48.45
53719;BME280;39616;48.872;9.390;2023-04-26T12:45:57;98328.44;;;12.92;46.34
53719;BME280;39616;48.872;9.390;2023-04-26T12:48:28;98332.94;;;12.66;46.17
53719;BME280;39616;48.872;9.390;2023-04-26T12:50:58;98333.09;;;12.24;47.08
53719;BME280;39616;48.872;9.390;2023-04-26T12:53:29;98323.13;;;12.56;46.59
53719;BME280;39616;48.872;9.390;2023-04-26T12:55:59;98324.50;;;12.98;45.55
53719;BME280;39616;48.872;9.390;2023-04-26T12:58:30;98327.09;;;13.26;46.25
53719;BME280;39616;48.872;9.390;2023-04-26T13:01:00;98327.53;;;12.97;45.61
53719;BME280;39616;48.872;9.390;2023-04-26T13:03:30;98328.47;;;12.70;47.23
53719;BME280;39616;48.872;9.390;2023-04-26T13:06:01;98326.31;;;12.80;46.40
53719;BME280;39616;48.872;9.390;2023-04-26T13:08:31;98330.41;;;12.47;47.78
53719;BME280;39616;48.872;9.390;2023-04-26T13:11:01;98330.66;;;12.81;50.08
53719;BME280;39616;48.872;9.390;2023-04-26T13:13:32;98328.91;;;12.86;46.45
53719;BME280;39616;48.872;9.390;2023-04-26T13:16:02;98326.56;;;12.93;46.51
53719;BME280;39616;48.872;9.390;2023-04-26T13:18:33;98323.72;;;13.06;47.04
53719;BME280;39616;48.872;9.390;2023-04-26T13:21:03;98322.47;;;13.44;44.22
53719;BME280;39616;48.872;9.390;2023-04-26T13:23:34;98317.72;;;13.49;46.18
53719;BME280;39616;48.872;9.390;2023-04-26T13:26:05;98327.38;;;13.24;44.25
53719;BME280;39616;48.872;9.390;2023-04-26T13:28:36;98318.41;;;13.24;46.69
53719;BME280;39616;48.872;9.390;2023-04-26T13:31:06;98306.78;;;13.41;44.50
53719;BME280;39616;48.872;9.390;2023-04-26T13:33:36;98314.63;;;13.34;45.81
53719;BME280;39616;48.872;9.390;2023-04-26T13:36:07;98312.31;;;12.96;45.28
53719;BME280;39616;48.872;9.390;2023-04-26T13:38:37;98311.75;;;13.39;48.41
53719;BME280;39616;48.872;9.390;2023-04-26T13:41:07;98311.06;;;13.82;45.76
53719;BME280;39616;48.872;9.390;2023-04-26T13:43:38;98311.47;;;13.49;44.59